createdAt,value
2022-09-10T00:14:38.285Z,17.23
2022-09-10T00:34:40.984Z,17.14
2022-09-10T00:54:43.430Z,17.10
2022-09-10T01:14:47.150Z,16.87
2022-09-10T01:34:49.664Z,16.81
2022-09-10T01:54:52.226Z,16.63
2022-09-10T02:14:58.386Z,16.11
2022-09-10T02:35:00.920Z,16.05
2022-09-10T02:55:03.295Z,16.67
2022-09-10T03:15:06.037Z,16.50
2022-09-10T03:35:11.332Z,16.54
2022-09-10T03:55:14.619Z,16.09
2022-09-10T04:15:17.278Z,15.81
2022-09-10T04:35:40.122Z,15.45
2022-09-10T04:55:42.844Z,15.42
2022-09-10T05:15:51.963Z,15.77
2022-09-10T05:35:54.631Z,15.58
2022-09-10T05:55:57.129Z,15.71
2022-09-10T06:15:59.730Z,15.17
2022-09-10T06:36:02.487Z,14.89
2022-09-10T06:56:04.867Z,15.17
2022-09-10T07:16:07.879Z,14.98
2022-09-10T07:36:11.169Z,15.40
2022-09-10T07:56:13.602Z,15.76
2022-09-10T08:16:16.492Z,16.04
2022-09-10T08:36:19.563Z,16.47
2022-09-10T08:56:21.996Z,17.02
2022-09-10T09:16:24.460Z,18.49
2022-09-10T09:36:28.229Z,18.44
2022-09-10T09:56:30.814Z,19.53
2022-09-10T10:16:33.445Z,21.13
2022-09-10T10:36:36.710Z,22.44
2022-09-10T10:56:39.183Z,21.19
2022-09-10T11:16:42.760Z,20.50
2022-09-10T11:36:45.632Z,20.99
2022-09-10T11:56:48.172Z,21.65
2022-09-10T12:16:50.781Z,21.82
2022-09-10T12:36:53.966Z,22.43
2022-09-10T12:56:57.950Z,23.57
2022-09-10T13:17:00.981Z,22.17
2022-09-10T13:37:04.088Z,21.08
2022-09-10T13:57:08.284Z,21.56
2022-09-10T14:17:10.876Z,22.10
2022-09-10T14:37:13.575Z,23.23
2022-09-10T14:57:16.327Z,22.94
2022-09-10T15:17:18.863Z,22.48
2022-09-10T15:37:22.581Z,21.60
2022-09-10T15:57:25.369Z,21.67
2022-09-10T16:17:28.040Z,20.56
2022-09-10T16:37:31.223Z,16.25
2022-09-10T16:57:33.635Z,14.89
2022-09-10T17:17:36.279Z,15.30
2022-09-10T17:37:39.137Z,15.58
2022-09-10T17:57:41.575Z,15.36
2022-09-10T18:17:44.197Z,14.97
2022-09-10T18:37:47.329Z,15.25
2022-09-10T18:57:49.715Z,15.26
2022-09-10T19:17:52.355Z,15.33
2022-09-10T19:37:54.982Z,15.43
2022-09-10T19:57:58.348Z,15.08
2022-09-10T20:18:01.135Z,14.86
2022-09-10T20:38:03.887Z,14.83
2022-09-10T20:58:06.296Z,14.62
2022-09-10T21:18:08.798Z,14.49
2022-09-10T21:38:11.560Z,14.67
2022-09-10T21:58:15.207Z,14.87
2022-09-10T22:18:18.373Z,15.42
2022-09-10T22:38:21.729Z,15.28
2022-09-10T22:58:24.139Z,15.21
2022-09-10T23:18:26.723Z,15.58
2022-09-10T23:38:29.931Z,15.51
2022-09-10T23:58:34.117Z,15.42
